Time;durP1;ratioP1;P1;durP2;ratioP2;P2;SDS_P1;SDS_P2;PMS_P1;PMS_P2;Temp;Humidity;BMP_temperature;BMP_pressure;BME280_temperature;BME280_humidity;BME280_pressure;Samples;Min_cycle;Max_cycle;Signal;HPM_P1;HPM_P2
2022/11/27 00:01:45;;;;;;;9.52;6.65;;;;;;;7.97;71.47;101461.66;10271333;28;20085;-59
2022/11/27 00:06:46;;;;;;;9.27;6.60;;;;;;;7.97;71.64;101464.31;10262353;28;20595;-60
2022/11/27 00:11:47;;;;;;;9.68;6.85;;;;;;;8.01;71.97;101452.63;10268398;28;20055;-61
2022/11/27 00:16:49;;;;;;;9.18;6.68;;;;;;;8.01;71.88;101442.00;10259610;28;20156;-60
2022/11/27 00:21:50;;;;;;;13.00;8.60;;;;;;;7.99;71.97;101430.66;10269669;28;20139;-60
2022/11/27 00:26:52;;;;;;;15.63;9.90;;;;;;;7.94;71.92;101428.22;10329029;28;20137;-60
2022/11/27 00:31:55;;;;;;;15.50;8.40;;;;;;;7.94;72.00;101417.63;10264718;28;20149;-60
2022/11/27 00:36:56;;;;;;;11.00;7.68;;;;;;;7.99;72.51;101420.03;10263996;28;20046;-60
2022/11/27 00:41:57;;;;;;;11.40;8.30;;;;;;;8.03;72.03;101415.41;10262984;28;20053;-59
2022/11/27 00:46:59;;;;;;;11.23;7.20;;;;;;;7.83;71.87;101376.69;10262561;28;20046;-59
2022/11/27 00:52:01;;;;;;;12.25;6.93;;;;;;;7.96;72.34;101396.34;10262691;28;20056;-58
2022/11/27 00:57:03;;;;;;;11.63;6.15;;;;;;;7.93;72.51;101401.78;10265106;28;20144;-59
2022/11/27 01:02:05;;;;;;;8.95;7.25;;;;;;;7.92;72.34;101384.16;10270147;28;20062;-62
2022/11/27 01:07:06;;;;;;;10.45;7.38;;;;;;;7.95;72.47;101400.75;10263496;28;20585;-62
2022/11/27 01:12:08;;;;;;;11.38;7.68;;;;;;;7.89;72.88;101392.28;10266165;28;20072;-60
2022/11/27 01:17:09;;;;;;;8.40;7.05;;;;;;;7.82;73.20;101378.50;10263617;28;20149;-59
2022/11/27 01:22:10;;;;;;;12.43;8.10;;;;;;;7.72;73.77;101379.88;10263336;28;20069;-59
2022/11/27 01:27:13;;;;;;;10.50;7.25;;;;;;;7.74;74.29;101372.69;10259201;28;20066;-58
2022/11/27 01:32:15;;;;;;;13.90;8.35;;;;;;;7.77;74.52;101373.41;10263002;28;20051;-58
2022/11/27 01:37:16;;;;;;;13.40;7.63;;;;;;;7.75;74.53;101363.81;10266072;28;20085;-59
2022/11/27 01:42:18;;;;;;;8.95;7.07;;;;;;;7.70;74.83;101364.06;10262317;28;20121;-60
2022/11/27 01:47:30;;;;;;;11.00;7.55;;;;;;;7.67;75.32;101366.88;10267441;28;20057;-60
2022/11/27 01:52:36;;;;;;;9.15;6.82;;;;;;;7.64;75.17;101361.72;10264204;28;20184;-58
2022/11/27 01:57:46;;;;;;;10.52;6.45;;;;;;;7.68;75.35;101357.97;10272389;28;20363;-60
2022/11/27 02:02:48;;;;;;;10.63;6.72;;;;;;;7.65;76.11;101358.13;10257881;28;20748;-58
2022/11/27 02:07:51;;;;;;;10.48;6.95;;;;;;;7.56;76.46;101370.03;10258120;28;20051;-58
2022/11/27 02:13:02;;;;;;;12.07;7.03;;;;;;;7.45;76.67;101359.13;10259410;28;20062;-58
2022/11/27 02:18:22;;;;;;;9.30;6.53;;;;;;;7.35;77.19;101361.38;10334656;28;20076;-59
2022/11/27 02:23:42;;;;;;;10.15;7.38;;;;;;;7.28;77.62;101354.69;10258762;28;20058;-59
2022/11/27 02:29:06;;;;;;;11.85;7.47;;;;;;;7.18;77.76;101348.13;10266179;28;20605;-58
2022/11/27 02:34:34;;;;;;;10.07;6.93;;;;;;;7.11;78.19;101336.94;10262458;28;20069;-59
2022/11/27 02:39:56;;;;;;;11.75;9.13;;;;;;;7.07;78.31;101330.06;10261581;28;20066;-60
2022/11/27 02:45:02;;;;;;;11.55;7.15;;;;;;;6.92;78.72;101323.75;10261186;28;20089;-59
2022/11/27 02:50:08;;;;;;;11.57;7.80;;;;;;;6.87;79.04;101336.34;10263426;28;20042;-58
2022/11/27 02:55:13;;;;;;;10.10;7.85;;;;;;;6.79;79.54;101330.56;10259938;28;20553;-59
2022/11/27 03:00:16;;;;;;;9.82;8.25;;;;;;;6.66;79.73;101320.53;10258160;28;20046;-59
2022/11/27 03:05:20;;;;;;;12.55;8.48;;;;;;;6.48;80.28;101300.25;10265588;28;20055;-59
2022/11/27 03:10:33;;;;;;;11.23;8.10;;;;;;;6.44;80.47;101298.66;10258330;28;20614;-59
2022/11/27 03:15:48;;;;;;;11.82;7.75;;;;;;;6.46;80.64;101310.06;10319501;28;24763;-59
2022/11/27 03:20:54;;;;;;;;;;;;;;;6.45;80.65;101308.31;10322940;28;20046;-58
2022/11/27 03:25:55;;;;;;;10.13;8.75;;;;;;;6.41;81.11;101315.56;10261886;28;19933;-59
2022/11/27 03:30:57;;;;;;;13.50;8.38;;;;;;;6.38;81.31;101299.84;10260474;28;20586;-57
2022/11/27 03:35:58;;;;;;;11.88;8.25;;;;;;;6.33;81.14;101289.44;10256506;28;20059;-59
2022/11/27 03:41:10;;;;;;;15.52;8.93;;;;;;;6.41;81.31;101298.81;10254356;28;20077;-58
2022/11/27 03:46:28;;;;;;;12.63;9.77;;;;;;;6.40;80.84;101297.97;10256730;28;20053;-58
2022/11/27 03:52:06;;;;;;;13.32;9.80;;;;;;;6.35;81.50;101287.59;10258159;28;20151;-59
2022/11/27 03:57:19;;;;;;;11.98;8.70;;;;;;;6.29;81.33;101281.72;10291267;28;20060;-59
2022/11/27 04:02:39;;;;;;;15.75;9.75;;;;;;;6.26;81.35;101269.53;10255890;28;20171;-59
2022/11/27 04:07:41;;;;;;;11.70;9.10;;;;;;;6.18;82.02;101269.00;10260431;28;20089;-59
2022/11/27 04:12:42;;;;;;;13.57;9.65;;;;;;;5.92;82.06;101238.44;10256112;28;20058;-61
2022/11/27 04:17:44;;;;;;;10.90;9.07;;;;;;;6.11;82.61;101271.09;10334157;28;20051;-59
2022/11/27 04:22:45;;;;;;;12.27;9.32;;;;;;;6.03;83.04;101261.78;10262610;28;20057;-59
2022/11/27 04:27:46;;;;;;;13.50;9.95;;;;;;;5.83;83.14;101251.13;10262622;28;20051;-60
2022/11/27 04:32:48;;;;;;;12.23;9.23;;;;;;;5.87;82.94;101256.28;10269011;28;20053;-59
2022/11/27 04:37:49;;;;;;;15.35;9.30;;;;;;;5.83;83.50;101248.50;10253793;28;20073;-60
2022/11/27 04:42:50;;;;;;;13.20;9.55;;;;;;;5.80;83.82;101245.13;10261725;28;20068;-59
2022/11/27 04:47:52;;;;;;;14.95;10.15;;;;;;;5.78;83.55;101244.34;10258943;28;20716;-59
2022/11/27 04:52:53;;;;;;;16.15;10.15;;;;;;;5.69;83.21;101231.53;10259269;28;20149;-60
2022/11/27 04:57:54;;;;;;;13.90;9.82;;;;;;;5.70;83.32;101249.97;10273708;28;20057;-59
2022/11/27 05:02:56;;;;;;;11.82;9.18;;;;;;;5.65;83.44;101241.41;10255821;28;20058;-59
2022/11/27 05:07:57;;;;;;;12.95;9.38;;;;;;;5.57;83.28;101241.72;10263473;28;20057;-60
2022/11/27 05:12:59;;;;;;;11.35;9.68;;;;;;;5.46;83.87;101239.56;10275130;28;20712;-59
2022/11/27 05:18:00;;;;;;;13.18;9.57;;;;;;;5.42;83.83;101240.63;10269170;28;20069;-59
2022/11/27 05:23:01;;;;;;;10.73;9.52;;;;;;;5.30;84.17;101228.78;10264609;28;20053;-60
2022/11/27 05:28:03;;;;;;;12.50;9.75;;;;;;;5.25;84.50;101222.00;10262993;28;20115;-61
2022/11/27 05:33:06;;;;;;;12.02;9.93;;;;;;;5.19;83.84;101212.53;10259529;28;20519;-59
2022/11/27 05:38:08;;;;;;;12.25;9.52;;;;;;;5.24;83.67;101225.53;10255179;28;20072;-59
2022/11/27 05:43:09;;;;;;;13.13;9.70;;;;;;;5.20;83.75;101216.06;10317109;28;20051;-61
2022/11/27 05:48:10;;;;;;;16.20;9.88;;;;;;;5.16;83.43;101223.22;10256455;28;20057;-60
2022/11/27 05:53:12;;;;;;;11.38;10.18;;;;;;;5.19;83.34;101227.53;10262716;28;20100;-59
2022/11/27 05:58:13;;;;;;;10.07;8.77;;;;;;;5.25;82.84;101227.28;10259731;28;20166;-59
2022/11/27 06:03:15;;;;;;;14.30;10.02;;;;;;;5.30;82.63;101220.03;10253533;28;20863;-58
2022/11/27 06:08:16;;;;;;;12.82;10.32;;;;;;;5.28;81.96;101214.81;10339797;28;20892;-60
2022/11/27 06:13:18;;;;;;;12.27;10.32;;;;;;;5.21;82.09;101197.53;10258802;28;20622;-59
2022/11/27 06:18:19;;;;;;;12.80;9.43;;;;;;;5.21;82.48;101189.59;10259895;28;20050;-60
2022/11/27 06:23:21;;;;;;;13.65;9.40;;;;;;;5.22;82.02;101190.44;10257691;28;20068;-60
2022/11/27 06:28:22;;;;;;;11.35;9.27;;;;;;;5.22;82.19;101193.94;10266449;28;20050;-60
2022/11/27 06:33:23;;;;;;;10.88;9.73;;;;;;;5.26;81.71;101182.31;10260622;28;20055;-60
2022/11/27 06:38:25;;;;;;;14.05;9.68;;;;;;;5.10;81.97;101181.28;10319838;28;20129;-59
2022/11/27 06:43:26;;;;;;;11.45;9.98;;;;;;;5.12;82.14;101190.00;10264764;28;20059;-59
2022/11/27 06:48:29;;;;;;;11.70;10.05;;;;;;;5.02;82.07;101172.84;10339190;28;20065;-60
2022/11/27 06:53:33;;;;;;;14.68;9.45;;;;;;;4.86;82.15;101146.22;10249861;28;20062;-59
2022/11/27 06:58:37;;;;;;;11.87;9.40;;;;;;;5.13;81.41;101181.13;10318517;28;20069;-58
2022/11/27 07:03:39;;;;;;;14.23;9.80;;;;;;;5.08;81.33;101170.78;10239323;28;20046;-57
2022/11/27 07:08:41;;;;;;;11.55;9.60;;;;;;;5.07;81.32;101168.22;10241083;28;20065;-58
2022/11/27 07:13:43;;;;;;;14.70;10.27;;;;;;;5.09;81.03;101166.38;10238568;28;20741;-60
2022/11/27 07:18:48;;;;;;;12.50;9.40;;;;;;;4.99;80.87;101167.69;10243747;28;20062;-59
2022/11/27 07:23:50;;;;;;;14.52;9.50;;;;;;;4.87;81.50;101163.78;10241211;28;20172;-59
2022/11/27 07:28:52;;;;;;;11.50;9.75;;;;;;;4.94;81.42;101152.91;10244268;28;20047;-60
2022/11/27 07:33:53;;;;;;;12.63;9.63;;;;;;;4.94;81.30;101145.00;10238012;28;20046;-61
2022/11/27 07:38:56;;;;;;;15.27;10.00;;;;;;;4.99;81.19;101149.22;10304333;28;20054;-60
2022/11/27 07:43:58;;;;;;;11.00;8.82;;;;;;;5.00;81.04;101153.56;10236371;28;20069;-59
2022/11/27 07:49:00;;;;;;;11.52;10.00;;;;;;;5.05;80.91;101173.56;10306372;28;20062;-59
2022/11/27 07:54:01;;;;;;;11.32;9.45;;;;;;;4.99;80.61;101172.97;10244362;28;20453;-60
2022/11/27 07:59:03;;;;;;;10.15;9.05;;;;;;;5.23;80.43;101177.19;10242340;28;20759;-63
2022/11/27 08:04:04;;;;;;;13.25;10.45;;;;;;;5.42;79.11;101171.09;10304363;28;20371;-58
2022/11/27 08:09:05;;;;;;;11.27;9.32;;;;;;;5.34;79.38;101165.28;10244356;28;20051;-60
2022/11/27 08:14:15;;;;;;;11.13;9.63;;;;;;;5.31;79.31;101140.75;10243850;28;20059;-59
2022/11/27 08:19:16;;;;;;;13.75;9.57;;;;;;;5.40;79.05;101125.41;10241652;28;20070;-56
2022/11/27 08:24:17;;;;;;;11.50;10.15;;;;;;;5.55;78.50;101134.44;10237086;28;20058;-61
2022/11/27 08:29:19;;;;;;;12.23;9.48;;;;;;;5.88;79.63;101125.88;10239957;28;20057;-47
2022/11/27 08:34:20;;;;;;;9.40;8.30;;;;;;;6.17;79.23;101122.75;10318243;28;20432;-48
2022/11/27 08:39:22;;;;;;;10.85;9.40;;;;;;;6.18;76.34;101086.56;10246327;28;20047;-53
2022/11/27 08:44:23;;;;;;;9.52;8.52;;;;;;;6.59;74.96;101104.84;10243925;28;20604;-59
2022/11/27 08:49:25;;;;;;;9.93;7.55;;;;;;;6.72;74.80;101124.47;10240366;28;20110;-55
2022/11/27 08:54:26;;;;;;;10.60;8.00;;;;;;;6.62;73.79;101114.41;10303211;28;20057;-50
2022/11/27 08:59:28;;;;;;;12.32;8.55;;;;;;;6.62;74.62;101109.97;10233895;28;20056;-52
2022/11/27 09:04:29;;;;;;;9.13;8.23;;;;;;;6.84;73.69;101116.81;10314870;28;20081;-48
2022/11/27 09:09:31;;;;;;;9.63;7.88;;;;;;;6.98;72.54;101095.81;10233767;28;20084;-48
2022/11/27 09:14:32;;;;;;;8.88;7.75;;;;;;;7.14;71.79;101097.63;10234162;28;20141;-55
2022/11/27 09:19:33;;;;;;;8.88;7.65;;;;;;;7.32;71.32;101086.06;10297100;28;20721;-60
2022/11/27 09:24:35;;;;;;;9.07;7.30;;;;;;;7.73;69.84;101090.03;10234194;28;20051;-55
2022/11/27 09:29:37;;;;;;;8.52;7.63;;;;;;;7.79;69.20;101093.22;10296430;28;20150;-59
2022/11/27 09:34:38;;;;;;;7.60;6.82;;;;;;;7.65;69.41;101081.66;10294864;28;20055;-58
2022/11/27 09:39:40;;;;;;;9.82;8.00;;;;;;;7.93;68.24;101071.25;10231781;28;20050;-59
2022/11/27 09:44:51;;;;;;;9.32;8.10;;;;;;;8.39;66.61;101074.84;10233552;28;20210;-59
2022/11/27 09:49:58;;;;;;;9.27;8.05;;;;;;;8.75;65.84;101068.34;10236038;28;20188;-59
2022/11/27 09:55:08;;;;;;;9.63;6.82;;;;;;;9.08;65.29;101051.31;10241179;28;20863;-60
2022/11/27 10:00:16;;;;;;;9.05;7.85;;;;;;;9.31;63.95;101055.22;10233162;28;20096;-60
2022/11/27 10:05:21;;;;;;;8.80;6.55;;;;;;;9.09;63.77;101040.59;10229531;28;20744;-61
2022/11/27 10:10:49;;;;;;;7.85;6.57;;;;;;;9.06;63.87;101034.63;10292170;28;20046;-61
2022/11/27 10:16:09;;;;;;;7.47;6.78;;;;;;;9.16;63.24;101020.69;10222152;28;20540;-60
2022/11/27 10:21:29;;;;;;;6.82;5.80;;;;;;;9.65;62.71;101015.84;10237096;28;20060;-61
2022/11/27 10:27:01;;;;;;;7.47;5.82;;;;;;;10.88;58.51;100993.47;10268735;28;20061;-60
2022/11/27 10:32:14;;;;;;;7.05;5.18;;;;;;;14.92;47.29;100990.53;10279678;28;20400;-59
2022/11/27 10:37:41;;;;;;;6.47;5.25;;;;;;;13.93;48.41;100972.09;10218529;28;20069;-59
2022/11/27 10:43:06;;;;;;;7.32;5.93;;;;;;;12.77;51.54;100972.50;10229166;28;20187;-58
2022/11/27 10:48:07;;;;;;;;;;;;;;;12.13;52.79;100936.44;10226353;28;20050;-58
2022/11/27 10:53:20;;;;;;;7.50;5.43;;;;;;;11.63;54.75;100945.44;10222098;28;19929;-59
2022/11/27 10:58:33;;;;;;;7.28;6.20;;;;;;;11.24;56.10;100949.19;10219279;28;20130;-60
2022/11/27 11:03:36;;;;;;;6.82;5.30;;;;;;;10.76;57.81;100941.94;10221346;28;21355;-60
2022/11/27 11:08:37;;;;;;;6.45;4.88;;;;;;;10.52;58.56;100932.03;10219761;28;20995;-60
2022/11/27 11:13:39;;;;;;;6.53;5.80;;;;;;;10.36;58.84;100931.41;10214158;28;20536;-60
2022/11/27 11:18:49;;;;;;;6.65;6.05;;;;;;;9.99;59.29;100940.03;10217578;28;20062;-59
2022/11/27 11:24:19;;;;;;;5.78;5.15;;;;;;;9.78;60.75;100910.41;10288843;28;20845;-60
2022/11/27 11:29:27;;;;;;;7.13;5.78;;;;;;;9.71;61.51;100894.03;10213528;28;20378;-60
2022/11/27 11:34:30;;;;;;;7.68;5.80;;;;;;;9.69;61.50;100871.16;10294153;28;20574;-60
2022/11/27 11:39:43;;;;;;;7.78;5.68;;;;;;;9.60;61.24;100853.16;10284632;28;20050;-60
2022/11/27 11:44:50;;;;;;;5.57;5.03;;;;;;;9.73;61.27;100854.88;10298288;28;20458;-58
2022/11/27 11:49:53;;;;;;;5.68;4.38;;;;;;;10.02;59.77;100852.06;10216376;28;20058;-57
2022/11/27 11:55:30;;;;;;;5.47;4.35;;;;;;;10.08;59.28;100841.00;10224348;28;20055;-59
2022/11/27 12:00:45;;;;;;;5.97;4.85;;;;;;;10.23;59.28;100835.56;10229873;28;20046;-61
2022/11/27 12:06:29;;;;;;;6.50;4.15;;;;;;;10.34;58.62;100821.53;10215587;28;20789;-63
2022/11/27 12:11:42;;;;;;;5.18;4.13;;;;;;;10.20;59.43;100817.16;10225547;28;20051;-61
2022/11/27 12:16:54;;;;;;;7.25;4.75;;;;;;;10.29;58.80;100835.13;10330887;28;20125;-62
2022/11/27 12:21:56;;;;;;;4.60;4.18;;;;;;;10.59;58.62;100832.13;10221602;28;20054;-60
2022/11/27 12:27:07;;;;;;;16.70;9.27;;;;;;;11.90;55.34;100832.28;10286764;28;20057;-61
2022/11/27 12:32:33;;;;;;;23.85;13.00;;;;;;;13.54;50.17;100812.13;10227460;28;20050;-61
2022/11/27 12:37:56;;;;;;;11.18;6.72;;;;;;;13.57;48.74;100805.63;10228521;28;20058;-59
2022/11/27 12:43:03;;;;;;;9.85;6.72;;;;;;;13.16;50.15;100785.88;10233076;28;20147;-62
2022/11/27 12:48:13;;;;;;;10.70;7.40;;;;;;;12.63;51.98;100795.47;10229516;28;20054;-61
2022/11/27 12:53:38;;;;;;;16.60;10.23;;;;;;;12.06;52.92;100788.47;10290342;28;20057;-61
2022/11/27 12:58:44;;;;;;;20.02;15.55;;;;;;;12.42;51.61;100770.50;10230443;28;20038;-63
2022/11/27 13:04:03;;;;;;;7.82;5.00;;;;;;;18.28;40.21;100746.09;10229092;28;20105;-61
2022/11/27 13:09:14;;;;;;;9.38;8.13;;;;;;;22.45;30.98;100736.63;10373888;28;20515;-63
2022/11/27 13:14:22;;;;;;;3.15;2.78;;;;;;;21.98;31.98;100735.13;10281496;28;20052;-63
2022/11/27 13:19:31;;;;;;;4.40;3.25;;;;;;;21.79;31.24;100717.56;10250926;28;20042;-63
2022/11/27 13:24:34;;;;;;;8.20;7.55;;;;;;;20.64;32.40;100719.28;10234249;28;20547;-64
2022/11/27 13:29:45;;;;;;;3.10;2.80;;;;;;;18.71;35.61;100711.03;10229607;28;20838;-61
2022/11/27 13:34:49;;;;;;;3.72;2.72;;;;;;;16.35;40.08;100718.91;10232693;28;20308;-62
2022/11/27 13:39:58;;;;;;;5.68;5.00;;;;;;;14.29;44.03;100700.38;10318008;28;20054;-61
2022/11/27 13:45:11;;;;;;;6.13;4.47;;;;;;;13.00;47.62;100701.63;10232138;28;21767;-61
2022/11/27 13:50:16;;;;;;;3.55;2.60;;;;;;;12.54;48.85;100694.75;10236801;28;20066;-59
2022/11/27 13:55:24;;;;;;;4.75;2.92;;;;;;;11.97;50.53;100676.13;10236777;28;21320;-61
2022/11/27 14:00:41;;;;;;;4.97;3.78;;;;;;;11.62;51.60;100678.88;10235688;28;20054;-62
2022/11/27 14:05:44;;;;;;;5.22;3.50;;;;;;;11.28;52.48;100669.03;10233074;28;20061;-62
2022/11/27 14:11:02;;;;;;;4.40;4.00;;;;;;;11.05;53.37;100668.13;10230414;28;20057;-62
2022/11/27 14:16:21;;;;;;;5.47;3.88;;;;;;;10.77;54.84;100662.22;10238059;28;20049;-65
2022/11/27 14:21:43;;;;;;;4.18;2.90;;;;;;;10.55;55.87;100655.00;10237748;28;20061;-68
2022/11/27 14:26:45;;;;;;;4.53;3.20;;;;;;;10.31;56.65;100632.81;10237420;28;20054;-68
2022/11/27 14:31:56;;;;;;;3.95;3.22;;;;;;;10.19;59.53;100622.13;10236996;28;20169;-56
2022/11/27 14:36:59;;;;;;;4.68;4.03;;;;;;;10.16;58.19;100603.69;10234522;28;20698;-54
2022/11/27 14:42:19;;;;;;;5.82;3.83;;;;;;;10.07;57.84;100591.94;10233576;28;20055;-59
2022/11/27 14:47:25;;;;;;;4.63;3.42;;;;;;;9.71;58.48;100585.66;10232415;28;20051;-59
2022/11/27 14:52:27;;;;;;;4.40;4.00;;;;;;;9.43;59.75;100576.13;10293925;28;20047;-63
2022/11/27 14:57:29;;;;;;;6.22;5.72;;;;;;;9.28;60.03;100569.25;10227253;28;20054;-60
2022/11/27 15:02:31;;;;;;;6.05;5.55;;;;;;;9.27;61.33;100602.06;10236677;28;21124;-59
2022/11/27 15:07:36;;;;;;;5.03;4.53;;;;;;;9.06;61.34;100615.88;10231100;28;20050;-59
2022/11/27 15:12:48;;;;;;;6.60;5.07;;;;;;;8.95;61.48;100613.13;10233269;28;20054;-66
2022/11/27 15:17:56;;;;;;;4.90;3.83;;;;;;;8.97;63.37;100592.59;10237015;28;20053;-54
2022/11/27 15:22:59;;;;;;;6.78;4.25;;;;;;;9.10;62.73;100579.34;10229664;28;20125;-62
2022/11/27 15:28:00;;;;;;;5.13;4.63;;;;;;;9.07;62.00;100553.84;10296988;28;20496;-60
2022/11/27 15:33:03;;;;;;;5.68;4.18;;;;;;;9.17;63.13;100570.84;10309542;28;20046;-55
2022/11/27 15:38:09;;;;;;;5.22;4.45;;;;;;;9.10;61.97;100568.72;10224038;28;20046;-69
2022/11/27 15:43:15;;;;;;;11.63;5.43;;;;;;;8.86;62.81;100550.88;10370527;28;20054;-70
2022/11/27 15:48:18;;;;;;;5.30;4.78;;;;;;;8.80;62.84;100536.19;10289520;28;20051;-63
2022/11/27 15:53:19;;;;;;;5.55;4.97;;;;;;;8.79;63.33;100550.41;10220177;28;20054;-69
2022/11/27 15:58:21;;;;;;;6.07;4.60;;;;;;;8.74;63.56;100555.22;10289238;28;20093;-70
2022/11/27 16:03:22;;;;;;;5.10;4.45;;;;;;;8.78;63.47;100554.06;10221689;28;20149;-71
2022/11/27 16:08:24;;;;;;;6.40;5.55;;;;;;;8.72;63.40;100559.78;10222794;28;20733;-71
2022/11/27 16:13:25;;;;;;;6.60;5.97;;;;;;;8.67;63.64;100551.25;10232997;28;20046;-70
2022/11/27 16:18:27;;;;;;;7.05;6.18;;;;;;;8.38;63.78;100530.16;10228397;28;20050;-71
2022/11/27 16:23:28;;;;;;;8.05;6.32;;;;;;;8.58;64.55;100554.53;10230569;28;20916;-71
2022/11/27 16:28:31;;;;;;;8.93;7.63;;;;;;;8.43;64.83;100543.97;10228958;28;20054;-61
2022/11/27 16:33:32;;;;;;;7.95;7.03;;;;;;;8.46;65.38;100533.19;10226314;28;21542;-61
2022/11/27 16:38:34;;;;;;;7.82;7.03;;;;;;;8.33;65.95;100526.94;10225545;28;20081;-61
2022/11/27 16:43:38;;;;;;;8.00;7.20;;;;;;;8.27;66.38;100532.66;10236386;28;20244;-63
2022/11/27 16:48:41;;;;;;;8.80;7.47;;;;;;;8.24;67.25;100528.44;10231270;28;20051;-62
2022/11/27 16:53:44;;;;;;;8.95;8.15;;;;;;;8.13;67.50;100528.28;10234712;28;20363;-62
2022/11/27 16:58:47;;;;;;;10.00;8.60;;;;;;;8.19;67.51;100521.75;10234714;28;20049;-63
2022/11/27 17:03:49;;;;;;;9.65;8.60;;;;;;;8.18;67.63;100523.56;10234598;28;20500;-62
2022/11/27 17:08:52;;;;;;;11.13;9.00;;;;;;;8.11;68.30;100504.53;10226210;28;20050;-62
2022/11/27 17:14:00;;;;;;;9.52;8.57;;;;;;;8.11;68.32;100496.56;10232020;28;20610;-61
2022/11/27 17:19:01;;;;;;;8.60;7.80;;;;;;;8.11;68.51;100490.44;10232668;28;20570;-60
2022/11/27 17:24:09;;;;;;;9.38;7.90;;;;;;;8.00;68.57;100480.53;10293142;28;20065;-60
2022/11/27 17:29:19;;;;;;;9.52;8.55;;;;;;;8.10;68.68;100473.66;10234628;28;20058;-60
2022/11/27 17:34:21;;;;;;;10.05;9.05;;;;;;;8.06;68.58;100466.00;10232188;28;20268;-61
2022/11/27 17:39:22;;;;;;;9.85;8.95;;;;;;;8.09;68.73;100456.06;10227851;28;20065;-61
2022/11/27 17:44:24;;;;;;;10.93;8.90;;;;;;;8.14;68.49;100459.25;10229251;28;20262;-60
2022/11/27 17:49:25;;;;;;;9.13;8.07;;;;;;;8.11;68.14;100479.81;10228189;28;20059;-59
2022/11/27 17:54:27;;;;;;;8.55;7.75;;;;;;;8.06;68.45;100461.56;10229874;28;20059;-62
2022/11/27 17:59:28;;;;;;;9.38;8.52;;;;;;;8.04;68.61;100462.63;10226946;28;20065;-62
2022/11/27 18:04:31;;;;;;;8.77;7.97;;;;;;;7.97;68.41;100440.94;10229040;28;20051;-59
2022/11/27 18:09:32;;;;;;;8.75;7.85;;;;;;;8.07;68.18;100439.38;10293787;28;20050;-60
2022/11/27 18:14:34;;;;;;;9.18;7.30;;;;;;;8.03;68.09;100429.97;10226980;28;20047;-60
2022/11/27 18:19:35;;;;;;;8.15;7.40;;;;;;;7.97;68.11;100414.44;10232255;28;20070;-67
2022/11/27 18:24:40;;;;;;;9.20;8.30;;;;;;;7.88;68.32;100404.47;10227592;28;20054;-69
2022/11/27 18:29:43;;;;;;;8.50;7.65;;;;;;;7.76;68.72;100379.63;10312882;28;20054;-68
2022/11/27 18:34:45;;;;;;;8.80;7.93;;;;;;;7.78;68.54;100378.59;10228668;28;20180;-66
2022/11/27 18:39:47;;;;;;;8.25;7.50;;;;;;;7.82;67.97;100394.28;10293056;28;20662;-65
2022/11/27 18:44:48;;;;;;;7.50;6.80;;;;;;;7.79;68.21;100369.69;10226678;28;20065;-67
2022/11/27 18:49:50;;;;;;;7.82;7.13;;;;;;;7.71;68.22;100356.09;10225278;28;20126;-67
2022/11/27 18:54:51;;;;;;;7.97;7.25;;;;;;;7.69;67.93;100352.69;10285943;28;20061;-67
2022/11/27 18:59:53;;;;;;;9.48;7.65;;;;;;;7.67;68.21;100359.03;10225487;28;20046;-66
2022/11/27 19:04:54;;;;;;;8.23;7.20;;;;;;;7.64;67.86;100333.63;10229381;28;20841;-65
2022/11/27 19:09:56;;;;;;;8.30;7.43;;;;;;;7.78;67.65;100351.25;10288656;28;20065;-65
2022/11/27 19:14:57;;;;;;;8.00;7.13;;;;;;;7.74;68.03;100355.03;10281854;28;20154;-67
2022/11/27 19:19:59;;;;;;;9.05;8.07;;;;;;;7.56;67.36;100315.56;10238629;28;20065;-68
2022/11/27 19:25:00;;;;;;;8.15;7.35;;;;;;;7.71;67.61;100347.31;10295006;28;20047;-67
2022/11/27 19:30:02;;;;;;;7.85;7.05;;;;;;;7.59;67.37;100330.41;10225328;28;21038;-67
2022/11/27 19:35:04;;;;;;;8.35;7.55;;;;;;;7.47;67.40;100318.00;10288286;28;20054;-67
2022/11/27 19:40:08;;;;;;;9.43;8.52;;;;;;;7.68;67.31;100342.22;10222058;28;20074;-66
2022/11/27 19:45:09;;;;;;;8.50;7.70;;;;;;;7.64;67.31;100333.63;10227931;28;20059;-66
2022/11/27 19:50:12;;;;;;;9.60;8.65;;;;;;;7.62;67.53;100319.63;10303902;28;20059;-69
2022/11/27 19:55:14;;;;;;;8.15;7.35;;;;;;;7.58;67.39;100288.97;10233113;28;20532;-67
2022/11/27 20:00:15;;;;;;;9.73;8.20;;;;;;;7.58;67.49;100287.19;10231142;28;20055;-68
2022/11/27 20:05:17;;;;;;;9.38;8.48;;;;;;;7.46;67.68;100260.66;10308169;28;20046;-65
2022/11/27 20:10:19;;;;;;;9.52;7.70;;;;;;;7.27;68.18;100219.56;10228469;28;20051;-66
2022/11/27 20:15:20;;;;;;;9.60;8.05;;;;;;;7.42;68.24;100258.22;10228797;28;20062;-67
2022/11/27 20:20:21;;;;;;;9.55;8.65;;;;;;;7.48;67.69;100270.22;10229150;28;20576;-63
2022/11/27 20:25:24;;;;;;;10.68;8.35;;;;;;;7.55;68.02;100273.28;10227369;28;20140;-68
2022/11/27 20:30:26;;;;;;;9.55;8.65;;;;;;;7.55;67.81;100271.50;10230217;28;20050;-64
2022/11/27 20:35:27;;;;;;;9.50;8.68;;;;;;;7.56;67.45;100267.06;10304457;28;20546;-66
2022/11/27 20:40:29;;;;;;;9.82;9.02;;;;;;;7.56;67.71;100267.06;10235299;28;20054;-67
2022/11/27 20:45:30;;;;;;;9.65;8.70;;;;;;;7.57;67.77;100258.16;10234672;28;20137;-66
2022/11/27 20:50:33;;;;;;;10.63;9.52;;;;;;;7.41;67.63;100242.44;10231278;28;20062;-65
2022/11/27 20:55:34;;;;;;;9.25;8.32;;;;;;;7.51;67.84;100253.28;10230706;28;20941;-67
2022/11/27 21:00:36;;;;;;;8.65;7.82;;;;;;;7.52;66.80;100249.66;10232419;28;20976;-68
2022/11/27 21:05:41;;;;;;;9.27;8.38;;;;;;;7.54;66.85;100258.38;10231375;28;20079;-67
2022/11/27 21:10:43;;;;;;;9.07;8.20;;;;;;;7.50;66.46;100246.28;10301712;28;20690;-69
2022/11/27 21:15:46;;;;;;;8.15;7.32;;;;;;;7.44;65.58;100237.78;10250353;28;20051;-68
2022/11/27 21:20:47;;;;;;;8.43;7.63;;;;;;;7.22;66.29;100200.47;10253148;28;20466;-68
2022/11/27 21:25:49;;;;;;;7.95;7.15;;;;;;;7.45;65.60;100228.06;10254154;28;20054;-67
2022/11/27 21:30:50;;;;;;;9.48;8.57;;;;;;;7.43;66.34;100228.16;10261616;28;20054;-67
2022/11/27 21:35:55;;;;;;;9.10;8.18;;;;;;;7.38;66.10;100214.34;10258860;28;20056;-66
2022/11/27 21:40:56;;;;;;;9.00;8.10;;;;;;;7.30;66.58;100208.75;10264630;28;20058;-64
2022/11/27 21:46:03;;;;;;;10.50;9.02;;;;;;;7.37;66.24;100206.53;10317995;28;20047;-64
2022/11/27 21:51:11;;;;;;;8.43;7.63;;;;;;;7.35;65.84;100198.69;10257048;28;20195;-67
2022/11/27 21:56:16;;;;;;;9.25;8.35;;;;;;;7.26;66.01;100194.00;10259298;28;20539;-66
2022/11/27 22:01:21;;;;;;;8.57;7.68;;;;;;;7.24;65.70;100193.28;10328372;28;20054;-67
2022/11/27 22:06:27;;;;;;;9.07;8.00;;;;;;;7.20;65.66;100170.59;10260650;28;20058;-65
2022/11/27 22:11:29;;;;;;;9.45;8.38;;;;;;;7.16;66.03;100164.69;10263214;28;20051;-65
2022/11/27 22:16:33;;;;;;;9.27;7.78;;;;;;;7.16;66.24;100161.16;10269998;28;20046;-68
2022/11/27 22:21:38;;;;;;;8.77;7.50;;;;;;;7.11;65.66;100176.53;10318479;28;20054;-66
2022/11/27 22:26:40;;;;;;;9.35;8.45;;;;;;;7.07;66.11;100174.09;10307979;28;20057;-67
2022/11/27 22:31:41;;;;;;;8.80;7.88;;;;;;;7.10;65.93;100161.59;10262886;28;20046;-66
2022/11/27 22:36:43;;;;;;;10.40;8.27;;;;;;;7.09;65.79;100176.63;10264078;28;20078;-67
2022/11/27 22:41:45;;;;;;;9.77;8.52;;;;;;;7.08;66.11;100159.88;10320929;28;20051;-65
2022/11/27 22:46:46;;;;;;;9.55;8.07;;;;;;;7.00;66.21;100158.72;10325300;28;20078;-65
2022/11/27 22:51:47;;;;;;;9.05;8.15;;;;;;;7.03;66.37;100159.34;10259708;28;20065;-66
2022/11/27 22:56:49;;;;;;;8.48;7.68;;;;;;;7.02;66.22;100173.53;10256459;28;20062;-66
2022/11/27 23:01:50;;;;;;;9.05;8.23;;;;;;;6.97;65.90;100154.47;10256800;28;20042;-66
2022/11/27 23:06:52;;;;;;;9.43;8.52;;;;;;;7.03;65.47;100147.94;10326433;28;20050;-67
2022/11/27 23:11:55;;;;;;;9.80;8.02;;;;;;;6.98;64.94;100142.06;10258558;28;20076;-66
2022/11/27 23:16:57;;;;;;;8.93;8.07;;;;;;;6.93;65.09;100134.44;10260166;28;20558;-67
2022/11/27 23:21:58;;;;;;;8.68;7.70;;;;;;;6.72;65.98;100119.09;10325004;28;20503;-67
2022/11/27 23:27:00;;;;;;;11.45;9.85;;;;;;;6.82;66.28;100107.88;10325429;28;21180;-67
2022/11/27 23:32:01;;;;;;;9.85;8.85;;;;;;;6.81;66.04;100092.94;10257983;28;20058;-66